sensor_id;sensor_type;location;lat;lon;timestamp;pressure;altitude;pressure_sealevel;temperature
71428;BMP280;59246;59.102;37.928;2022-07-03T00:01:34;100151.91;;;20.21
71428;BMP280;59246;59.102;37.928;2022-07-03T00:04:00;100157.84;;;20.15
71428;BMP280;59246;59.102;37.928;2022-07-03T00:06:26;100156.88;;;20.07
71428;BMP280;59246;59.102;37.928;2022-07-03T00:08:53;100158.22;;;20.01
71428;BMP280;59246;59.102;37.928;2022-07-03T00:11:20;100152.28;;;19.95
71428;BMP280;59246;59.102;37.928;2022-07-03T00:13:46;100165.63;;;19.92
71428;BMP280;59246;59.102;37.928;2022-07-03T00:16:12;100168.22;;;19.88
71428;BMP280;59246;59.102;37.928;2022-07-03T00:18:37;100168.13;;;19.84
71428;BMP280;59246;59.102;37.928;2022-07-03T00:21:05;100152.97;;;19.80
71428;BMP280;59246;59.102;37.928;2022-07-03T00:23:43;100147.47;;;19.76
71428;BMP280;59246;59.102;37.928;2022-07-03T00:26:11;100154.19;;;19.70
71428;BMP280;59246;59.102;37.928;2022-07-03T00:28:38;100155.34;;;19.69
71428;BMP280;59246;59.102;37.928;2022-07-03T00:31:04;100155.66;;;19.67
71428;BMP280;59246;59.102;37.928;2022-07-03T00:33:33;100161.38;;;19.66
71428;BMP280;59246;59.102;37.928;2022-07-03T00:36:00;100165.22;;;19.65
71428;BMP280;59246;59.102;37.928;2022-07-03T00:38:26;100161.69;;;19.64
71428;BMP280;59246;59.102;37.928;2022-07-03T00:40:52;100169.47;;;19.66
71428;BMP280;59246;59.102;37.928;2022-07-03T00:43:18;100162.06;;;19.63
71428;BMP280;59246;59.102;37.928;2022-07-03T00:45:49;100167.91;;;19.65
71428;BMP280;59246;59.102;37.928;2022-07-03T00:48:16;100162.50;;;19.65
71428;BMP280;59246;59.102;37.928;2022-07-03T00:50:48;100162.97;;;19.67
71428;BMP280;59246;59.102;37.928;2022-07-03T00:53:18;100154.88;;;19.67
71428;BMP280;59246;59.102;37.928;2022-07-03T00:55:47;100153.41;;;19.69
71428;BMP280;59246;59.102;37.928;2022-07-03T00:58:16;100159.06;;;19.77
71428;BMP280;59246;59.102;37.928;2022-07-03T01:00:44;100156.78;;;19.79
71428;BMP280;59246;59.102;37.928;2022-07-03T01:03:15;100160.72;;;19.81
71428;BMP280;59246;59.102;37.928;2022-07-03T01:05:52;100157.22;;;19.81
71428;BMP280;59246;59.102;37.928;2022-07-03T01:18:54;100146.66;;;20.00
71428;BMP280;59246;59.102;37.928;2022-07-03T01:26:28;100155.84;;;20.12
71428;BMP280;59246;59.102;37.928;2022-07-03T01:28:59;100146.28;;;20.14
71428;BMP280;59246;59.102;37.928;2022-07-03T01:31:30;100154.47;;;20.18
71428;BMP280;59246;59.102;37.928;2022-07-03T01:33:57;100142.25;;;20.20
71428;BMP280;59246;59.102;37.928;2022-07-03T01:36:24;100148.06;;;20.22
71428;BMP280;59246;59.102;37.928;2022-07-03T01:38:53;100145.81;;;20.24
71428;BMP280;59246;59.102;37.928;2022-07-03T01:41:19;100154.34;;;20.26
71428;BMP280;59246;59.102;37.928;2022-07-03T01:43:49;100142.00;;;20.25
71428;BMP280;59246;59.102;37.928;2022-07-03T01:46:18;100146.25;;;20.26
71428;BMP280;59246;59.102;37.928;2022-07-03T01:48:47;100142.66;;;20.22
71428;BMP280;59246;59.102;37.928;2022-07-03T01:51:16;100148.66;;;20.16
71428;BMP280;59246;59.102;37.928;2022-07-03T01:53:47;100140.00;;;20.10
71428;BMP280;59246;59.102;37.928;2022-07-03T01:56:14;100138.69;;;20.04
71428;BMP280;59246;59.102;37.928;2022-07-03T01:58:40;100142.50;;;20.03
71428;BMP280;59246;59.102;37.928;2022-07-03T02:07:02;100148.91;;;19.98
71428;BMP280;59246;59.102;37.928;2022-07-03T02:09:51;100154.28;;;19.98
71428;BMP280;59246;59.102;37.928;2022-07-03T02:12:19;100148.13;;;19.98
71428;BMP280;59246;59.102;37.928;2022-07-03T02:15:05;100150.81;;;19.98
71428;BMP280;59246;59.102;37.928;2022-07-03T02:17:43;100155.53;;;20.01
71428;BMP280;59246;59.102;37.928;2022-07-03T02:20:09;100150.22;;;20.04
71428;BMP280;59246;59.102;37.928;2022-07-03T02:22:44;100153.94;;;20.12
71428;BMP280;59246;59.102;37.928;2022-07-03T02:25:19;100159.44;;;20.16
71428;BMP280;59246;59.102;37.928;2022-07-03T02:30:22;100152.66;;;20.22
71428;BMP280;59246;59.102;37.928;2022-07-03T02:32:51;100150.97;;;20.29
71428;BMP280;59246;59.102;37.928;2022-07-03T02:35:26;100151.63;;;20.39
71428;BMP280;59246;59.102;37.928;2022-07-03T02:41:02;100150.34;;;20.48
71428;BMP280;59246;59.102;37.928;2022-07-03T02:49:33;100157.59;;;20.60
71428;BMP280;59246;59.102;37.928;2022-07-03T03:03:27;100147.19;;;20.75
71428;BMP280;59246;59.102;37.928;2022-07-03T03:05:56;100160.41;;;20.80
71428;BMP280;59246;59.102;37.928;2022-07-03T03:08:48;100154.00;;;20.84
71428;BMP280;59246;59.102;37.928;2022-07-03T03:11:26;100153.75;;;20.89
71428;BMP280;59246;59.102;37.928;2022-07-03T03:13:56;100151.53;;;20.95
71428;BMP280;59246;59.102;37.928;2022-07-03T03:16:23;100150.50;;;21.00
71428;BMP280;59246;59.102;37.928;2022-07-03T03:18:49;100152.56;;;21.03
71428;BMP280;59246;59.102;37.928;2022-07-03T03:21:19;100150.72;;;21.07
71428;BMP280;59246;59.102;37.928;2022-07-03T03:23:49;100148.13;;;21.10
71428;BMP280;59246;59.102;37.928;2022-07-03T03:26:21;100153.22;;;21.15
71428;BMP280;59246;59.102;37.928;2022-07-03T03:28:48;100159.94;;;21.22
71428;BMP280;59246;59.102;37.928;2022-07-03T03:31:14;100155.06;;;21.27
71428;BMP280;59246;59.102;37.928;2022-07-03T03:33:45;100155.13;;;21.31
71428;BMP280;59246;59.102;37.928;2022-07-03T03:36:13;100148.78;;;21.39
71428;BMP280;59246;59.102;37.928;2022-07-03T03:38:40;100145.38;;;21.42
71428;BMP280;59246;59.102;37.928;2022-07-03T03:41:06;100138.59;;;21.48
71428;BMP280;59246;59.102;37.928;2022-07-03T03:43:33;100135.63;;;21.53
71428;BMP280;59246;59.102;37.928;2022-07-03T03:45:59;100143.38;;;21.55
71428;BMP280;59246;59.102;37.928;2022-07-03T03:48:29;100141.03;;;21.53
71428;BMP280;59246;59.102;37.928;2022-07-03T03:50:58;100149.28;;;21.61
71428;BMP280;59246;59.102;37.928;2022-07-03T03:53:25;100150.94;;;21.65
71428;BMP280;59246;59.102;37.928;2022-07-03T03:56:07;100140.97;;;21.69
71428;BMP280;59246;59.102;37.928;2022-07-03T03:58:34;100138.00;;;21.74
71428;BMP280;59246;59.102;37.928;2022-07-03T04:01:02;100141.63;;;21.82
71428;BMP280;59246;59.102;37.928;2022-07-03T04:03:29;100145.66;;;21.88
71428;BMP280;59246;59.102;37.928;2022-07-03T04:05:55;100145.34;;;21.93
71428;BMP280;59246;59.102;37.928;2022-07-03T04:08:22;100146.72;;;22.03
71428;BMP280;59246;59.102;37.928;2022-07-03T04:10:49;100152.25;;;22.10
71428;BMP280;59246;59.102;37.928;2022-07-03T04:13:15;100146.22;;;22.17
71428;BMP280;59246;59.102;37.928;2022-07-03T04:15:42;100144.81;;;22.23
71428;BMP280;59246;59.102;37.928;2022-07-03T04:18:08;100145.25;;;22.25
71428;BMP280;59246;59.102;37.928;2022-07-03T04:20:34;100140.66;;;22.29
71428;BMP280;59246;59.102;37.928;2022-07-03T04:23:01;100142.31;;;22.34
71428;BMP280;59246;59.102;37.928;2022-07-03T04:25:26;100149.41;;;22.42
71428;BMP280;59246;59.102;37.928;2022-07-03T04:27:52;100158.38;;;22.46
71428;BMP280;59246;59.102;37.928;2022-07-03T04:30:18;100152.66;;;22.51
71428;BMP280;59246;59.102;37.928;2022-07-03T04:32:43;100159.00;;;22.59
71428;BMP280;59246;59.102;37.928;2022-07-03T04:37:36;100159.19;;;22.70
71428;BMP280;59246;59.102;37.928;2022-07-03T04:40:02;100152.72;;;22.74
71428;BMP280;59246;59.102;37.928;2022-07-03T04:42:28;100169.41;;;22.80
71428;BMP280;59246;59.102;37.928;2022-07-03T04:44:53;100162.97;;;22.88
71428;BMP280;59246;59.102;37.928;2022-07-03T04:47:19;100154.22;;;22.95
71428;BMP280;59246;59.102;37.928;2022-07-03T04:49:46;100148.94;;;23.02
71428;BMP280;59246;59.102;37.928;2022-07-03T04:52:12;100154.44;;;23.09
71428;BMP280;59246;59.102;37.928;2022-07-03T04:54:38;100150.72;;;23.17
71428;BMP280;59246;59.102;37.928;2022-07-03T04:57:04;100141.53;;;23.25
71428;BMP280;59246;59.102;37.928;2022-07-03T04:59:30;100145.09;;;23.30
71428;BMP280;59246;59.102;37.928;2022-07-03T05:01:55;100148.31;;;23.39
71428;BMP280;59246;59.102;37.928;2022-07-03T05:04:21;100152.69;;;23.47
71428;BMP280;59246;59.102;37.928;2022-07-03T05:06:47;100140.03;;;23.55
71428;BMP280;59246;59.102;37.928;2022-07-03T05:09:13;100142.06;;;23.61
71428;BMP280;59246;59.102;37.928;2022-07-03T05:11:39;100147.56;;;23.68
71428;BMP280;59246;59.102;37.928;2022-07-03T05:14:05;100138.75;;;23.75
71428;BMP280;59246;59.102;37.928;2022-07-03T05:16:31;100145.41;;;23.81
71428;BMP280;59246;59.102;37.928;2022-07-03T05:18:57;100138.47;;;23.84
71428;BMP280;59246;59.102;37.928;2022-07-03T05:21:23;100144.00;;;23.91
71428;BMP280;59246;59.102;37.928;2022-07-03T05:23:50;100144.44;;;23.97
71428;BMP280;59246;59.102;37.928;2022-07-03T05:26:17;100137.88;;;24.01
71428;BMP280;59246;59.102;37.928;2022-07-03T05:28:42;100145.38;;;24.11
71428;BMP280;59246;59.102;37.928;2022-07-03T05:31:08;100150.47;;;24.17
71428;BMP280;59246;59.102;37.928;2022-07-03T05:33:34;100145.13;;;24.24
71428;BMP280;59246;59.102;37.928;2022-07-03T05:36:00;100140.50;;;24.28
71428;BMP280;59246;59.102;37.928;2022-07-03T05:38:25;100142.47;;;24.31
71428;BMP280;59246;59.102;37.928;2022-07-03T05:41:10;100131.69;;;24.38
71428;BMP280;59246;59.102;37.928;2022-07-03T05:43:36;100137.59;;;24.44
71428;BMP280;59246;59.102;37.928;2022-07-03T05:46:02;100142.69;;;24.49
71428;BMP280;59246;59.102;37.928;2022-07-03T05:48:28;100133.41;;;24.53
71428;BMP280;59246;59.102;37.928;2022-07-03T05:50:55;100138.88;;;24.57
71428;BMP280;59246;59.102;37.928;2022-07-03T05:53:21;100140.88;;;24.64
71428;BMP280;59246;59.102;37.928;2022-07-03T05:55:47;100139.31;;;24.66
71428;BMP280;59246;59.102;37.928;2022-07-03T05:58:13;100146.34;;;24.71
71428;BMP280;59246;59.102;37.928;2022-07-03T06:00:39;100135.16;;;24.76
71428;BMP280;59246;59.102;37.928;2022-07-03T06:03:04;100142.56;;;24.79
71428;BMP280;59246;59.102;37.928;2022-07-03T06:05:30;100141.03;;;24.82
71428;BMP280;59246;59.102;37.928;2022-07-03T06:07:58;100138.31;;;24.85
71428;BMP280;59246;59.102;37.928;2022-07-03T06:10:24;100142.63;;;24.90
71428;BMP280;59246;59.102;37.928;2022-07-03T06:12:50;100141.47;;;24.91
71428;BMP280;59246;59.102;37.928;2022-07-03T06:15:15;100155.88;;;24.95
71428;BMP280;59246;59.102;37.928;2022-07-03T06:17:41;100148.88;;;24.94
71428;BMP280;59246;59.102;37.928;2022-07-03T06:20:07;100151.22;;;24.99
71428;BMP280;59246;59.102;37.928;2022-07-03T06:22:33;100146.22;;;25.01
71428;BMP280;59246;59.102;37.928;2022-07-03T06:24:59;100145.06;;;25.06
71428;BMP280;59246;59.102;37.928;2022-07-03T06:27:25;100137.75;;;25.10
71428;BMP280;59246;59.102;37.928;2022-07-03T06:29:51;100137.38;;;25.11
71428;BMP280;59246;59.102;37.928;2022-07-03T06:32:17;100130.38;;;25.10
71428;BMP280;59246;59.102;37.928;2022-07-03T06:34:43;100133.09;;;25.14
71428;BMP280;59246;59.102;37.928;2022-07-03T06:37:12;100136.63;;;25.18
71428;BMP280;59246;59.102;37.928;2022-07-03T06:39:38;100136.28;;;25.23
71428;BMP280;59246;59.102;37.928;2022-07-03T06:42:04;100144.06;;;25.25
71428;BMP280;59246;59.102;37.928;2022-07-03T06:44:30;100144.06;;;25.32
71428;BMP280;59246;59.102;37.928;2022-07-03T06:46:56;100134.06;;;25.39
71428;BMP280;59246;59.102;37.928;2022-07-03T06:49:22;100139.09;;;25.41
71428;BMP280;59246;59.102;37.928;2022-07-03T06:51:49;100136.00;;;25.42
71428;BMP280;59246;59.102;37.928;2022-07-03T06:54:14;100148.84;;;25.49
71428;BMP280;59246;59.102;37.928;2022-07-03T06:56:40;100142.72;;;25.66
71428;BMP280;59246;59.102;37.928;2022-07-03T06:59:08;100144.66;;;25.73
71428;BMP280;59246;59.102;37.928;2022-07-03T07:01:34;100134.97;;;25.79
71428;BMP280;59246;59.102;37.928;2022-07-03T07:04:00;100132.66;;;25.81
71428;BMP280;59246;59.102;37.928;2022-07-03T07:06:28;100136.16;;;25.85
71428;BMP280;59246;59.102;37.928;2022-07-03T07:08:54;100137.75;;;25.90
71428;BMP280;59246;59.102;37.928;2022-07-03T07:11:19;100145.13;;;25.93
71428;BMP280;59246;59.102;37.928;2022-07-03T07:13:45;100139.28;;;25.95
71428;BMP280;59246;59.102;37.928;2022-07-03T07:16:11;100143.19;;;25.94
71428;BMP280;59246;59.102;37.928;2022-07-03T07:18:36;100129.59;;;25.94
71428;BMP280;59246;59.102;37.928;2022-07-03T07:21:02;100145.13;;;25.97
71428;BMP280;59246;59.102;37.928;2022-07-03T07:23:28;100149.00;;;25.96
71428;BMP280;59246;59.102;37.928;2022-07-03T07:25:53;100135.41;;;25.96
71428;BMP280;59246;59.102;37.928;2022-07-03T07:28:19;100138.91;;;25.93
71428;BMP280;59246;59.102;37.928;2022-07-03T07:30:45;100140.03;;;25.88
71428;BMP280;59246;59.102;37.928;2022-07-03T07:33:10;100149.00;;;25.88
71428;BMP280;59246;59.102;37.928;2022-07-03T07:35:36;100139.25;;;25.91
71428;BMP280;59246;59.102;37.928;2022-07-03T07:38:02;100148.22;;;25.95
71428;BMP280;59246;59.102;37.928;2022-07-03T07:40:27;100147.09;;;25.96
71428;BMP280;59246;59.102;37.928;2022-07-03T07:42:53;100151.38;;;26.01
71428;BMP280;59246;59.102;37.928;2022-07-03T07:45:19;100139.31;;;26.05
71428;BMP280;59246;59.102;37.928;2022-07-03T07:47:45;100145.94;;;26.11
71428;BMP280;59246;59.102;37.928;2022-07-03T07:50:11;100168.91;;;26.14
71428;BMP280;59246;59.102;37.928;2022-07-03T07:52:37;100157.63;;;26.12
71428;BMP280;59246;59.102;37.928;2022-07-03T07:55:04;100147.13;;;26.14
71428;BMP280;59246;59.102;37.928;2022-07-03T07:57:38;100152.59;;;26.21
71428;BMP280;59246;59.102;37.928;2022-07-03T08:00:11;100145.94;;;26.22
71428;BMP280;59246;59.102;37.928;2022-07-03T08:02:37;100145.59;;;26.27
71428;BMP280;59246;59.102;37.928;2022-07-03T08:05:23;100141.34;;;26.30
71428;BMP280;59246;59.102;37.928;2022-07-03T08:08:08;100140.97;;;26.31
71428;BMP280;59246;59.102;37.928;2022-07-03T08:10:36;100144.81;;;26.34
71428;BMP280;59246;59.102;37.928;2022-07-03T08:13:02;100154.94;;;26.33
71428;BMP280;59246;59.102;37.928;2022-07-03T08:15:28;100158.03;;;26.36
71428;BMP280;59246;59.102;37.928;2022-07-03T08:17:53;100151.06;;;26.38
71428;BMP280;59246;59.102;37.928;2022-07-03T08:20:19;100148.72;;;26.44
71428;BMP280;59246;59.102;37.928;2022-07-03T08:22:45;100145.59;;;26.45
71428;BMP280;59246;59.102;37.928;2022-07-03T08:25:10;100150.25;;;26.48
71428;BMP280;59246;59.102;37.928;2022-07-03T08:27:36;100148.72;;;26.47
71428;BMP280;59246;59.102;37.928;2022-07-03T08:30:03;100133.94;;;26.52
71428;BMP280;59246;59.102;37.928;2022-07-03T08:32:29;100144.81;;;26.52
71428;BMP280;59246;59.102;37.928;2022-07-03T08:34:54;100146.38;;;26.53
71428;BMP280;59246;59.102;37.928;2022-07-03T08:37:20;100144.06;;;26.59
71428;BMP280;59246;59.102;37.928;2022-07-03T08:39:47;100137.44;;;26.63
71428;BMP280;59246;59.102;37.928;2022-07-03T08:42:15;100135.09;;;26.65
71428;BMP280;59246;59.102;37.928;2022-07-03T08:44:43;100143.25;;;26.65
71428;BMP280;59246;59.102;37.928;2022-07-03T08:47:11;100135.09;;;26.72
71428;BMP280;59246;59.102;37.928;2022-07-03T08:49:37;100131.22;;;26.81
71428;BMP280;59246;59.102;37.928;2022-07-03T08:52:04;100130.44;;;26.84
71428;BMP280;59246;59.102;37.928;2022-07-03T08:54:33;100140.91;;;26.82
71428;BMP280;59246;59.102;37.928;2022-07-03T08:57:02;100138.63;;;26.84
71428;BMP280;59246;59.102;37.928;2022-07-03T08:59:38;100125.78;;;26.88
71428;BMP280;59246;59.102;37.928;2022-07-03T09:02:05;100141.31;;;26.94
71428;BMP280;59246;59.102;37.928;2022-07-03T09:04:34;100137.41;;;26.99
71428;BMP280;59246;59.102;37.928;2022-07-03T09:07:00;100140.13;;;26.99
71428;BMP280;59246;59.102;37.928;2022-07-03T09:09:27;100138.56;;;27.05
71428;BMP280;59246;59.102;37.928;2022-07-03T09:11:53;100148.28;;;27.10
71428;BMP280;59246;59.102;37.928;2022-07-03T09:14:19;100138.94;;;27.18
71428;BMP280;59246;59.102;37.928;2022-07-03T09:16:45;100149.44;;;27.19
71428;BMP280;59246;59.102;37.928;2022-07-03T09:19:11;100140.47;;;27.22
71428;BMP280;59246;59.102;37.928;2022-07-03T09:21:41;100142.00;;;27.27
71428;BMP280;59246;59.102;37.928;2022-07-03T09:24:08;100140.06;;;27.31
71428;BMP280;59246;59.102;37.928;2022-07-03T09:26:35;100143.94;;;27.37
71428;BMP280;59246;59.102;37.928;2022-07-03T09:29:01;100140.03;;;27.42
71428;BMP280;59246;59.102;37.928;2022-07-03T09:31:30;100126.75;;;27.44
71428;BMP280;59246;59.102;37.928;2022-07-03T09:34:00;100128.72;;;27.47
71428;BMP280;59246;59.102;37.928;2022-07-03T09:36:46;100132.22;;;27.48
71428;BMP280;59246;59.102;37.928;2022-07-03T09:39:25;100132.19;;;27.51
71428;BMP280;59246;59.102;37.928;2022-07-03T09:42:05;100128.31;;;27.52
71428;BMP280;59246;59.102;37.928;2022-07-03T09:44:33;100134.16;;;27.51
71428;BMP280;59246;59.102;37.928;2022-07-03T09:50:03;100111.50;;;27.64
71428;BMP280;59246;59.102;37.928;2022-07-03T09:52:39;100121.59;;;27.67
71428;BMP280;59246;59.102;37.928;2022-07-03T10:00:19;100122.63;;;27.95
71428;BMP280;59246;59.102;37.928;2022-07-03T10:05:25;100121.63;;;28.20
71428;BMP280;59246;59.102;37.928;2022-07-03T10:07:54;100121.56;;;28.34
71428;BMP280;59246;59.102;37.928;2022-07-03T10:10:21;100123.34;;;28.51
71428;BMP280;59246;59.102;37.928;2022-07-03T10:12:51;100111.06;;;28.74
71428;BMP280;59246;59.102;37.928;2022-07-03T10:15:18;100112.00;;;28.91
71428;BMP280;59246;59.102;37.928;2022-07-03T10:17:52;100119.31;;;29.05
71428;BMP280;59246;59.102;37.928;2022-07-03T10:20:24;100116.72;;;29.24
71428;BMP280;59246;59.102;37.928;2022-07-03T10:22:51;100122.44;;;29.37
71428;BMP280;59246;59.102;37.928;2022-07-03T10:25:17;100123.34;;;29.54
71428;BMP280;59246;59.102;37.928;2022-07-03T10:27:46;100114.31;;;29.61
71428;BMP280;59246;59.102;37.928;2022-07-03T10:30:17;100108.19;;;29.77
71428;BMP280;59246;59.102;37.928;2022-07-03T10:32:45;100104.06;;;29.92
71428;BMP280;59246;59.102;37.928;2022-07-03T10:35:13;100109.19;;;30.13
71428;BMP280;59246;59.102;37.928;2022-07-03T10:38:12;100106.50;;;30.33
71428;BMP280;59246;59.102;37.928;2022-07-03T10:41:01;100107.03;;;30.48
71428;BMP280;59246;59.102;37.928;2022-07-03T10:43:48;100108.94;;;30.71
71428;BMP280;59246;59.102;37.928;2022-07-03T10:46:32;100115.19;;;30.92
71428;BMP280;59246;59.102;37.928;2022-07-03T10:49:03;100088.59;;;31.08
71428;BMP280;59246;59.102;37.928;2022-07-03T10:51:51;100111.22;;;31.13
71428;BMP280;59246;59.102;37.928;2022-07-03T10:54:24;100102.63;;;31.30
71428;BMP280;59246;59.102;37.928;2022-07-03T11:02:17;100107.72;;;31.81
71428;BMP280;59246;59.102;37.928;2022-07-03T11:05:08;100097.66;;;32.07
71428;BMP280;59246;59.102;37.928;2022-07-03T11:15:45;100093.84;;;32.34
71428;BMP280;59246;59.102;37.928;2022-07-03T11:28:05;100088.38;;;33.01
71428;BMP280;59246;59.102;37.928;2022-07-03T11:30:31;100096.97;;;33.16
71428;BMP280;59246;59.102;37.928;2022-07-03T11:33:00;100070.91;;;33.08
71428;BMP280;59246;59.102;37.928;2022-07-03T11:35:45;100076.59;;;33.13
71428;BMP280;59246;59.102;37.928;2022-07-03T11:38:17;100071.78;;;33.30
71428;BMP280;59246;59.102;37.928;2022-07-03T11:40:43;100071.28;;;33.44
71428;BMP280;59246;59.102;37.928;2022-07-03T11:43:11;100076.50;;;34.87
71428;BMP280;59246;59.102;37.928;2022-07-03T11:45:39;100070.22;;;37.18
71428;BMP280;59246;59.102;37.928;2022-07-03T11:48:09;100065.44;;;39.95
71428;BMP280;59246;59.102;37.928;2022-07-03T11:50:40;100057.59;;;42.70
71428;BMP280;59246;59.102;37.928;2022-07-03T11:53:28;100062.78;;;44.16
71428;BMP280;59246;59.102;37.928;2022-07-03T11:56:02;100071.25;;;45.55
71428;BMP280;59246;59.102;37.928;2022-07-03T11:58:47;100072.56;;;46.21
71428;BMP280;59246;59.102;37.928;2022-07-03T12:09:35;100072.31;;;49.90
71428;BMP280;59246;59.102;37.928;2022-07-03T12:12:06;100054.75;;;50.31
71428;BMP280;59246;59.102;37.928;2022-07-03T12:17:05;100053.66;;;50.77
71428;BMP280;59246;59.102;37.928;2022-07-03T12:19:31;100055.28;;;52.01
71428;BMP280;59246;59.102;37.928;2022-07-03T12:21:57;100051.81;;;53.05
71428;BMP280;59246;59.102;37.928;2022-07-03T12:24:23;100059.69;;;53.64
71428;BMP280;59246;59.102;37.928;2022-07-03T12:26:49;100052.13;;;53.88
71428;BMP280;59246;59.102;37.928;2022-07-03T12:29:16;100052.13;;;53.88
71428;BMP280;59246;59.102;37.928;2022-07-03T12:31:45;100047.78;;;53.37
71428;BMP280;59246;59.102;37.928;2022-07-03T12:34:12;100049.09;;;52.78
71428;BMP280;59246;59.102;37.928;2022-07-03T12:36:39;100043.88;;;53.22
71428;BMP280;59246;59.102;37.928;2022-07-03T12:39:06;100050.44;;;53.54
71428;BMP280;59246;59.102;37.928;2022-07-03T12:41:32;100060.53;;;53.76
71428;BMP280;59246;59.102;37.928;2022-07-03T12:43:59;100043.44;;;54.27
71428;BMP280;59246;59.102;37.928;2022-07-03T12:46:26;100040.63;;;54.17
71428;BMP280;59246;59.102;37.928;2022-07-03T12:48:54;100059.38;;;54.01
71428;BMP280;59246;59.102;37.928;2022-07-03T12:51:43;100048.03;;;54.32
71428;BMP280;59246;59.102;37.928;2022-07-03T12:54:14;100043.13;;;54.75
71428;BMP280;59246;59.102;37.928;2022-07-03T12:56:41;100046.06;;;54.34
71428;BMP280;59246;59.102;37.928;2022-07-03T12:59:23;100056.41;;;54.30
71428;BMP280;59246;59.102;37.928;2022-07-03T13:02:05;100056.34;;;54.70
71428;BMP280;59246;59.102;37.928;2022-07-03T13:04:37;100057.22;;;55.06
71428;BMP280;59246;59.102;37.928;2022-07-03T13:07:05;100057.22;;;55.06
71428;BMP280;59246;59.102;37.928;2022-07-03T13:09:35;100054.88;;;54.60
71428;BMP280;59246;59.102;37.928;2022-07-03T13:12:01;100054.50;;;54.75
71428;BMP280;59246;59.102;37.928;2022-07-03T13:14:27;100058.13;;;55.20
71428;BMP280;59246;59.102;37.928;2022-07-03T13:16:57;100053.00;;;55.40
71428;BMP280;59246;59.102;37.928;2022-07-03T13:19:25;100036.50;;;55.27
71428;BMP280;59246;59.102;37.928;2022-07-03T13:21:53;100043.38;;;55.68
71428;BMP280;59246;59.102;37.928;2022-07-03T13:24:20;100043.38;;;55.68
71428;BMP280;59246;59.102;37.928;2022-07-03T13:26:47;100042.88;;;55.60
71428;BMP280;59246;59.102;37.928;2022-07-03T13:29:13;100028.50;;;55.58
71428;BMP280;59246;59.102;37.928;2022-07-03T13:31:39;100043.00;;;54.51
71428;BMP280;59246;59.102;37.928;2022-07-03T13:34:05;100037.75;;;53.86
71428;BMP280;59246;59.102;37.928;2022-07-03T13:36:32;100031.22;;;53.83
71428;BMP280;59246;59.102;37.928;2022-07-03T13:38:58;100023.31;;;54.34
71428;BMP280;59246;59.102;37.928;2022-07-03T13:41:24;100035.25;;;54.42
71428;BMP280;59246;59.102;37.928;2022-07-03T13:43:50;100035.13;;;55.16
71428;BMP280;59246;59.102;37.928;2022-07-03T13:46:17;100041.66;;;54.21
71428;BMP280;59246;59.102;37.928;2022-07-03T13:48:44;100041.66;;;54.21
71428;BMP280;59246;59.102;37.928;2022-07-03T13:51:10;100041.25;;;54.58
71428;BMP280;59246;59.102;37.928;2022-07-03T13:53:36;100046.72;;;54.54
71428;BMP280;59246;59.102;37.928;2022-07-03T13:56:02;100033.78;;;54.10
71428;BMP280;59246;59.102;37.928;2022-07-03T13:58:28;100031.22;;;53.23
71428;BMP280;59246;59.102;37.928;2022-07-03T14:00:54;100039.19;;;49.83
71428;BMP280;59246;59.102;37.928;2022-07-03T14:03:20;100027.94;;;46.30
71428;BMP280;59246;59.102;37.928;2022-07-03T14:05:46;100034.78;;;43.97
71428;BMP280;59246;59.102;37.928;2022-07-03T14:08:13;100033.66;;;42.10
71428;BMP280;59246;59.102;37.928;2022-07-03T14:10:39;100029.44;;;40.60
71428;BMP280;59246;59.102;37.928;2022-07-03T14:13:05;100034.56;;;39.61
71428;BMP280;59246;59.102;37.928;2022-07-03T14:15:32;100030.81;;;38.56
71428;BMP280;59246;59.102;37.928;2022-07-03T14:17:58;100027.34;;;37.52
71428;BMP280;59246;59.102;37.928;2022-07-03T14:20:26;100020.28;;;36.65
71428;BMP280;59246;59.102;37.928;2022-07-03T14:22:51;100029.06;;;35.93
71428;BMP280;59246;59.102;37.928;2022-07-03T14:25:17;100030.94;;;35.41
71428;BMP280;59246;59.102;37.928;2022-07-03T14:27:43;100030.53;;;34.93
71428;BMP280;59246;59.102;37.928;2022-07-03T14:30:27;100024.25;;;34.52
71428;BMP280;59246;59.102;37.928;2022-07-03T14:33:11;100026.72;;;34.06
71428;BMP280;59246;59.102;37.928;2022-07-03T14:35:37;100023.34;;;33.67
71428;BMP280;59246;59.102;37.928;2022-07-03T14:38:03;100020.34;;;33.40
71428;BMP280;59246;59.102;37.928;2022-07-03T14:40:29;100024.91;;;33.21
71428;BMP280;59246;59.102;37.928;2022-07-03T14:42:55;100022.03;;;32.99
71428;BMP280;59246;59.102;37.928;2022-07-03T14:45:23;100012.38;;;32.82
71428;BMP280;59246;59.102;37.928;2022-07-03T14:47:48;100017.66;;;32.63
71428;BMP280;59246;59.102;37.928;2022-07-03T14:50:14;100021.91;;;32.52
71428;BMP280;59246;59.102;37.928;2022-07-03T14:52:40;100029.34;;;32.51
71428;BMP280;59246;59.102;37.928;2022-07-03T14:55:06;100023.28;;;32.43
71428;BMP280;59246;59.102;37.928;2022-07-03T14:57:53;100009.47;;;32.47
71428;BMP280;59246;59.102;37.928;2022-07-03T15:00:26;100013.75;;;32.48
71428;BMP280;59246;59.102;37.928;2022-07-03T15:03:07;100028.31;;;33.00
71428;BMP280;59246;59.102;37.928;2022-07-03T15:05:34;100026.50;;;35.90
71428;BMP280;59246;59.102;37.928;2022-07-03T15:08:15;100019.44;;;38.95
71428;BMP280;59246;59.102;37.928;2022-07-03T15:10:45;100029.00;;;40.78
71428;BMP280;59246;59.102;37.928;2022-07-03T15:13:13;100016.56;;;42.48
71428;BMP280;59246;59.102;37.928;2022-07-03T15:15:40;100029.25;;;43.91
71428;BMP280;59246;59.102;37.928;2022-07-03T15:18:08;100030.09;;;45.31
71428;BMP280;59246;59.102;37.928;2022-07-03T15:20:36;100017.34;;;46.36
71428;BMP280;59246;59.102;37.928;2022-07-03T15:23:05;100022.31;;;46.85
71428;BMP280;59246;59.102;37.928;2022-07-03T15:25:33;100017.75;;;47.52